Time;durP1;ratioP1;P1;durP2;ratioP2;P2;SDS_P1;SDS_P2;PMS_P1;PMS_P2;Temp;Humidity;BMP_temperature;BMP_pressure;BME280_temperature;BME280_humidity;BME280_pressure;Samples;Min_cycle;Max_cycle;Signal;HPM_P1;HPM_P2
2023/01/20 00:00:10;;;;;;;2.67;2.47;;;17.80;44.50;;;;;;5033771;28;20171;-77
2023/01/20 00:02:36;;;;;;;2.53;2.23;;;17.80;44.50;;;;;;5033786;28;20191;-77
2023/01/20 00:05:01;;;;;;;3.60;2.53;;;17.80;44.60;;;;;;5033622;28;20494;-77
2023/01/20 00:07:27;;;;;;;2.70;2.40;;;17.80;45.10;;;;;;5034148;28;20187;-77
2023/01/20 00:09:52;;;;;;;3.20;2.90;;;17.70;44.50;;;;;;5033628;28;20172;-77
2023/01/20 00:12:18;;;;;;;2.80;2.30;;;17.70;44.50;;;;;;5032221;28;20648;-77
2023/01/20 00:14:43;;;;;;;2.70;2.10;;;17.70;44.50;;;;;;5033977;28;20182;-75
2023/01/20 00:17:09;;;;;;;3.77;3.07;;;17.70;44.60;;;;;;5032011;28;20235;-75
2023/01/20 00:19:35;;;;;;;2.30;2.10;;;17.70;44.60;;;;;;5032134;28;20488;-77
2023/01/20 00:22:00;;;;;;;3.20;2.90;;;17.60;44.60;;;;;;5033703;28;20175;-75
2023/01/20 00:24:26;;;;;;;2.90;2.57;;;17.60;44.60;;;;;;5033238;28;20203;-77
2023/01/20 00:26:51;;;;;;;3.27;2.63;;;17.60;44.60;;;;;;5033449;28;20200;-76
2023/01/20 00:29:17;;;;;;;2.50;2.30;;;17.60;44.60;;;;;;5033412;28;20183;-76
2023/01/20 00:31:43;;;;;;;4.00;2.30;;;17.60;44.60;;;;;;5033362;28;20627;-77
2023/01/20 00:34:09;;;;;;;2.60;2.40;;;17.50;44.60;;;;;;5032075;28;20278;-77
2023/01/20 00:36:35;;;;;;;3.00;2.70;;;17.50;45.20;;;;;;5033292;28;20225;-76
2023/01/20 00:39:01;;;;;;;3.43;2.77;;;17.50;44.60;;;;;;5033126;28;20419;-76
2023/01/20 00:41:27;;;;;;;2.90;2.60;;;17.50;44.60;;;;;;5033329;28;20168;-76
2023/01/20 00:43:52;;;;;;;2.67;2.43;;;17.50;44.60;;;;;;5032891;28;20515;-78
2023/01/20 00:46:18;;;;;;;2.70;2.47;;;17.40;44.60;;;;;;5033113;28;20179;-77
2023/01/20 00:48:44;;;;;;;3.77;2.20;;;17.40;44.60;;;;;;5032749;28;20207;-77
2023/01/20 00:51:10;;;;;;;2.30;2.00;;;17.40;44.60;;;;;;5032843;28;20683;-78
2023/01/20 00:53:36;;;;;;;2.90;2.60;;;17.40;44.60;;;;;;5031559;28;20624;-77
2023/01/20 00:56:02;;;;;;;3.07;2.87;;;17.40;44.60;;;;;;5032695;28;20495;-77
2023/01/20 00:58:27;;;;;;;2.33;2.10;;;17.40;44.60;;;;;;5032797;28;21001;-77
2023/01/20 01:00:54;;;;;;;2.60;2.40;;;17.40;44.60;;;;;;5031326;28;20449;-77
2023/01/20 01:03:20;;;;;;;2.50;2.30;;;17.30;44.60;;;;;;5032137;28;20294;-78
2023/01/20 01:05:46;;;;;;;2.73;2.20;;;17.30;44.60;;;;;;5031974;28;20410;-77
2023/01/20 01:08:12;;;;;;;2.90;2.47;;;17.30;44.60;;;;;;5034091;28;20434;-78
2023/01/20 01:10:38;;;;;;;2.47;2.27;;;17.30;44.70;;;;;;5033079;28;20511;-77
2023/01/20 01:13:04;;;;;;;2.80;2.50;;;17.20;44.60;;;;;;5032381;28;20766;-78
2023/01/20 01:15:30;;;;;;;2.53;2.33;;;17.20;44.60;;;;;;5032366;28;20402;-77
2023/01/20 01:17:57;;;;;;;2.40;2.20;;;17.30;44.70;;;;;;5032415;28;20437;-77
2023/01/20 01:20:23;;;;;;;2.73;2.00;;;17.20;44.60;;;;;;5032715;28;20203;-78
2023/01/20 01:22:49;;;;;;;2.23;2.03;;;17.20;44.60;;;;;;5032321;28;20442;-77
2023/01/20 01:25:15;;;;;;;2.10;1.90;;;17.20;44.60;;;;;;5032403;28;20425;-78
2023/01/20 01:27:40;;;;;;;2.70;2.50;;;17.20;44.60;;;;;;5032093;28;20196;-77
2023/01/20 01:30:07;;;;;;;3.00;2.30;;;17.10;44.60;;;;;;5032244;28;20172;-78
2023/01/20 01:32:32;;;;;;;2.03;1.87;;;17.10;44.60;;;;;;5032291;28;20262;-77
2023/01/20 01:34:58;;;;;;;2.30;2.10;;;17.10;44.60;;;;;;5032191;28;20469;-77
2023/01/20 01:37:24;;;;;;;2.50;2.30;;;17.10;44.60;;;;;;5032129;28;20192;-78
2023/01/20 01:39:49;;;;;;;2.50;2.30;;;17.10;44.60;;;;;;5032262;28;20184;-78
2023/01/20 01:42:21;;;;;;;3.00;2.30;;;17.00;44.60;;;;;;5032195;28;20183;-77
2023/01/20 01:45:05;;;;;;;2.13;1.80;;;17.10;44.60;;;;;;5032046;28;20180;-77
2023/01/20 01:47:31;;;;;;;2.40;1.93;;;17.10;44.60;;;;;;5031656;28;20446;-77
2023/01/20 01:49:56;;;;;;;2.80;2.60;;;17.00;44.60;;;;;;5031959;28;20415;-77
2023/01/20 01:52:23;;;;;;;2.57;2.37;;;17.00;44.60;;;;;;5030489;28;20233;-77
2023/01/20 01:54:49;;;;;;;2.60;2.13;;;17.00;44.60;;;;;;5032313;28;20179;-77
2023/01/20 01:57:15;;;;;;;2.30;2.07;;;17.00;44.60;;;;;;5031803;28;20931;-78
2023/01/20 01:59:43;;;;;;;2.13;1.90;;;17.00;44.60;;;;;;5031761;28;20403;-78
2023/01/20 02:02:08;;;;;;;2.47;2.27;;;17.00;44.60;;;;;;5031713;28;20231;-77
2023/01/20 02:04:37;;;;;;;2.47;2.17;;;17.00;44.60;;;;;;5030367;28;20910;-77
2023/01/20 02:07:08;;;;;;;2.83;2.20;;;16.90;44.60;;;;;;5031774;28;20299;-77
2023/01/20 02:09:34;;;;;;;2.50;2.20;;;16.90;44.60;;;;;;5031605;28;20395;-77
2023/01/20 02:12:03;;;;;;;2.20;2.00;;;16.90;44.60;;;;;;5031720;28;20409;-77
2023/01/20 02:14:51;;;;;;;2.60;2.27;;;16.90;44.60;;;;;;5032654;28;20827;-77
2023/01/20 02:17:32;;;;;;;2.10;1.90;;;16.90;44.60;;;;;;5035434;28;20801;-77
2023/01/20 02:20:19;;;;;;;2.57;2.30;;;16.90;44.60;;;;;;5035707;28;20407;-77
2023/01/20 02:23:07;;;;;;;2.27;1.90;;;16.80;44.60;;;;;;5035637;28;20445;-78
2023/01/20 02:25:57;;;;;;;3.10;2.20;;;16.80;44.60;;;;;;5034344;28;20509;-78
2023/01/20 02:29:00;;;;;;;3.10;2.30;;;16.80;44.60;;;;;;5035401;28;20835;-78
2023/01/20 02:31:57;;;;;;;2.47;2.27;;;16.80;44.60;;;;;;5035476;28;20892;-77
2023/01/20 02:34:35;;;;;;;2.80;2.57;;;16.80;44.70;;;;;;5035689;28;20402;-77
2023/01/20 02:37:14;;;;;;;3.63;2.37;;;16.80;44.70;;;;;;5035747;28;20747;-77
2023/01/20 02:40:13;;;;;;;2.40;2.20;;;16.80;44.70;;;;;;5034878;28;20898;-77
2023/01/20 02:42:45;;;;;;;2.50;2.03;;;16.70;44.60;;;;;;5035373;28;20477;-78
2023/01/20 02:45:21;;;;;;;3.10;2.10;;;16.70;44.60;;;;;;5035212;28;20406;-78
2023/01/20 02:47:57;;;;;;;2.50;2.10;;;16.70;44.60;;;;;;5035485;28;20548;-75
2023/01/20 02:50:41;;;;;;;2.30;2.07;;;16.70;45.20;;;;;;5035181;28;20429;-75
2023/01/20 02:53:10;;;;;;;2.40;2.20;;;16.70;44.60;;;;;;5035124;28;20754;-75
2023/01/20 02:55:45;;;;;;;2.30;2.10;;;16.70;45.20;;;;;;5035022;28;20510;-75
2023/01/20 02:58:18;;;;;;;2.67;2.27;;;16.60;44.50;;;;;;5035015;28;20430;-74
2023/01/20 03:00:50;;;;;;;2.63;2.40;;;16.60;44.50;;;;;;5034996;28;20882;-75
2023/01/20 03:03:21;;;;;;;2.53;2.33;;;16.70;44.60;;;;;;5033592;28;20557;-75
2023/01/20 03:06:00;;;;;;;2.77;2.27;;;16.70;44.60;;;;;;5036392;28;20988;-75
2023/01/20 03:08:30;;;;;;;2.10;1.90;;;16.70;44.60;;;;;;5035585;28;20483;-75
2023/01/20 03:11:02;;;;;;;2.63;2.23;;;16.60;44.50;;;;;;5035676;28;20494;-75
2023/01/20 03:13:35;;;;;;;2.27;2.07;;;16.60;44.50;;;;;;5033476;28;20502;-75
2023/01/20 03:16:07;;;;;;;2.67;2.07;;;16.60;44.50;;;;;;5034965;28;20425;-75
2023/01/20 03:18:33;;;;;;;2.73;2.40;;;16.60;44.50;;;;;;5034777;28;20456;-77
2023/01/20 03:21:01;;;;;;;2.17;1.97;;;16.60;44.50;;;;;;5034748;28;20437;-78
2023/01/20 03:23:30;;;;;;;2.63;2.07;;;16.60;44.50;;;;;;5034695;28;20449;-78
2023/01/20 03:25:57;;;;;;;2.63;1.90;;;16.60;44.50;;;;;;5033040;28;20887;-78
2023/01/20 03:28:22;;;;;;;2.50;2.27;;;16.50;44.50;;;;;;5034606;28;20426;-76
2023/01/20 03:30:48;;;;;;;2.40;2.20;;;16.60;44.50;;;;;;5034640;28;20411;-78
2023/01/20 03:33:15;;;;;;;2.57;2.37;;;16.60;44.50;;;;;;5034730;28;20184;-78
2023/01/20 03:35:41;;;;;;;2.97;2.67;;;16.50;44.40;;;;;;5034555;28;20249;-78
2023/01/20 03:38:07;;;;;;;2.90;2.17;;;16.50;44.40;;;;;;5034446;28;20435;-76
2023/01/20 03:40:40;;;;;;;2.00;1.80;;;16.50;44.40;;;;;;5034468;28;20788;-76
2023/01/20 03:43:40;;;;;;;2.80;2.33;;;16.50;44.40;;;;;;5034576;28;20442;-76
2023/01/20 03:46:18;;;;;;;2.60;2.30;;;16.50;44.40;;;;;;5030939;28;20450;-77
2023/01/20 03:49:08;;;;;;;3.23;2.00;;;16.50;44.40;;;;;;5034206;28;20450;-77
2023/01/20 03:51:42;;;;;;;2.77;2.47;;;16.50;44.50;;;;;;5034212;28;20387;-76
2023/01/20 03:54:13;;;;;;;2.93;2.63;;;16.50;44.50;;;;;;5034083;28;20913;-76
2023/01/20 03:57:02;;;;;;;2.50;2.23;;;16.50;44.50;;;;;;5034298;28;20398;-78
2023/01/20 03:59:32;;;;;;;2.53;2.33;;;16.50;44.50;;;;;;5034202;28;20460;-77
2023/01/20 04:02:04;;;;;;;2.80;2.40;;;16.50;44.50;;;;;;5034206;28;20829;-77
2023/01/20 04:04:36;;;;;;;3.10;2.10;;;16.50;44.50;;;;;;5032617;28;20874;-77
2023/01/20 04:07:09;;;;;;;2.53;2.33;;;16.40;44.40;;;;;;5033801;28;20517;-77
2023/01/20 04:09:41;;;;;;;2.43;2.23;;;16.40;44.40;;;;;;5034118;28;20913;-77
2023/01/20 04:12:07;;;;;;;3.87;2.47;;;16.40;44.40;;;;;;5033980;28;20391;-77
2023/01/20 04:14:36;;;;;;;2.13;1.80;;;16.40;44.40;;;;;;5034034;28;20493;-78
2023/01/20 04:17:02;;;;;;;2.13;1.90;;;16.40;44.40;;;;;;5033792;28;20415;-77
2023/01/20 04:19:28;;;;;;;2.90;2.30;;;16.40;44.40;;;;;;5033951;28;20449;-77
2023/01/20 04:22:23;;;;;;;2.33;2.13;;;16.40;44.40;;;;;;5033810;28;20411;-77
2023/01/20 04:24:53;;;;;;;4.03;2.80;;;16.40;44.40;;;;;;5034109;28;20182;-74
2023/01/20 04:27:19;;;;;;;3.20;2.50;;;16.40;44.40;;;;;;5032305;28;21102;-74
2023/01/20 04:29:44;;;;;;;2.53;2.27;;;16.40;44.40;;;;;;5033614;28;20465;-74
2023/01/20 04:32:11;;;;;;;4.30;2.23;;;16.40;44.40;;;;;;5033659;28;20178;-74
2023/01/20 04:34:37;;;;;;;2.90;2.23;;;16.40;44.40;;;;;;5033735;28;20638;-74
2023/01/20 04:37:03;;;;;;;2.90;2.23;;;16.40;44.40;;;;;;5032734;28;20423;-74
2023/01/20 04:39:28;;;;;;;2.17;1.97;;;16.30;44.30;;;;;;5033565;28;20490;-74
2023/01/20 04:41:54;;;;;;;2.50;2.30;;;16.40;44.40;;;;;;5033615;28;20916;-74
2023/01/20 04:44:20;;;;;;;2.43;2.13;;;16.30;44.30;;;;;;5033434;28;20213;-74
2023/01/20 04:46:46;;;;;;;2.63;2.43;;;16.30;44.20;;;;;;5033236;28;20164;-74
2023/01/20 04:49:12;;;;;;;2.43;2.13;;;16.30;44.30;;;;;;5033431;28;20171;-74
2023/01/20 04:51:38;;;;;;;2.50;2.30;;;16.30;44.30;;;;;;5033338;28;20171;-74
2023/01/20 04:54:04;;;;;;;2.50;2.00;;;16.30;44.30;;;;;;5033192;28;20493;-74
2023/01/20 04:56:29;;;;;;;3.33;2.70;;;16.30;44.30;;;;;;5032953;28;20199;-74
2023/01/20 04:58:55;;;;;;;2.60;2.40;;;16.30;44.30;;;;;;5032927;28;20266;-74
2023/01/20 05:01:21;;;;;;;2.87;2.00;;;16.30;44.30;;;;;;5031787;28;20180;-74
2023/01/20 05:03:46;;;;;;;2.70;2.50;;;16.30;44.30;;;;;;5032949;28;20196;-74
2023/01/20 05:06:12;;;;;;;2.53;2.33;;;16.30;44.30;;;;;;5032288;28;20297;-74
2023/01/20 05:08:38;;;;;;;2.40;2.20;;;16.20;44.20;;;;;;5033278;28;20188;-74
2023/01/20 05:11:04;;;;;;;2.70;2.13;;;16.30;44.30;;;;;;5033949;28;20429;-74
2023/01/20 05:13:30;;;;;;;2.10;1.90;;;16.20;44.20;;;;;;5033273;28;20182;-74
2023/01/20 05:15:55;;;;;;;2.70;2.13;;;16.20;44.20;;;;;;5033343;28;20517;-75
2023/01/20 05:18:21;;;;;;;3.63;2.70;;;16.20;44.20;;;;;;5033251;28;20576;-74
2023/01/20 05:20:48;;;;;;;2.73;2.47;;;16.20;44.20;;;;;;5033675;28;20693;-74
2023/01/20 05:23:14;;;;;;;2.20;2.00;;;16.20;44.20;;;;;;5033068;28;20191;-74
2023/01/20 05:25:40;;;;;;;2.20;1.90;;;16.20;44.20;;;;;;5033169;28;20508;-74
2023/01/20 05:28:05;;;;;;;3.53;2.57;;;16.20;44.20;;;;;;5033132;28;20430;-74
2023/01/20 05:30:31;;;;;;;2.33;2.13;;;16.20;44.20;;;;;;5032971;28;20163;-74
2023/01/20 05:32:57;;;;;;;2.50;2.10;;;16.20;44.20;;;;;;5032964;28;20682;-74
2023/01/20 05:35:22;;;;;;;2.53;2.33;;;16.20;44.80;;;;;;5032998;28;20267;-74
2023/01/20 05:37:52;;;;;;;2.80;2.30;;;16.20;44.20;;;;;;5032885;28;20737;-74
2023/01/20 05:40:17;;;;;;;2.57;2.13;;;16.20;44.20;;;;;;5033351;28;20167;-74
2023/01/20 05:42:43;;;;;;;2.70;2.50;;;16.10;44.20;;;;;;5032822;28;20461;-74
2023/01/20 05:45:09;;;;;;;2.40;1.90;;;16.10;44.10;;;;;;5032977;28;20172;-74
2023/01/20 05:47:34;;;;;;;3.10;2.50;;;16.10;44.20;;;;;;5032835;28;20200;-74
2023/01/20 05:50:00;;;;;;;3.13;2.33;;;16.10;44.20;;;;;;5032736;28;20176;-74
2023/01/20 05:52:26;;;;;;;2.70;2.20;;;16.10;44.20;;;;;;5032840;28;20160;-74
2023/01/20 05:54:51;;;;;;;2.63;2.30;;;16.10;44.20;;;;;;5032868;28;20209;-74
2023/01/20 05:57:17;;;;;;;2.27;1.90;;;16.10;44.20;;;;;;5032703;28;20630;-74
2023/01/20 05:59:50;;;;;;;2.90;2.37;;;16.10;44.10;;;;;;5032631;28;20172;-74
2023/01/20 06:02:17;;;;;;;2.50;2.20;;;16.10;44.20;;;;;;5032969;28;20170;-75
2023/01/20 06:04:46;;;;;;;3.50;2.40;;;16.10;44.20;;;;;;5032573;28;20434;-74
2023/01/20 06:07:13;;;;;;;2.67;2.20;;;16.10;44.20;;;;;;5032500;28;20921;-74
2023/01/20 06:09:38;;;;;;;2.27;2.07;;;16.10;44.20;;;;;;5032500;28;20505;-74
2023/01/20 06:12:04;;;;;;;2.77;2.30;;;16.10;44.20;;;;;;5031149;28;20438;-74
2023/01/20 06:14:30;;;;;;;2.20;2.00;;;16.10;44.20;;;;;;5032401;28;20187;-74
2023/01/20 06:16:55;;;;;;;2.03;1.83;;;16.00;44.10;;;;;;5032409;28;20206;-74
2023/01/20 06:19:21;;;;;;;2.40;2.20;;;16.10;44.20;;;;;;5032461;28;20176;-74
2023/01/20 06:21:47;;;;;;;2.67;2.30;;;16.00;44.10;;;;;;5032493;28;20215;-74
2023/01/20 06:24:12;;;;;;;3.13;2.80;;;16.00;44.00;;;;;;5032209;28;20594;-74
2023/01/20 06:26:38;;;;;;;2.87;2.30;;;16.00;44.10;;;;;;5032320;28;20182;-74
2023/01/20 06:29:04;;;;;;;3.23;2.40;;;16.00;44.10;;;;;;5032474;28;20258;-74
2023/01/20 06:31:30;;;;;;;2.77;2.20;;;16.00;44.10;;;;;;5032331;28;20168;-74
2023/01/20 06:33:55;;;;;;;2.67;2.20;;;16.00;44.10;;;;;;5032660;28;20438;-74
2023/01/20 06:36:22;;;;;;;2.57;2.00;;;16.00;44.10;;;;;;5032294;28;20184;-76
2023/01/20 06:38:49;;;;;;;3.80;2.80;;;16.00;44.10;;;;;;5032424;28;20256;-77
2023/01/20 06:41:16;;;;;;;2.63;2.30;;;15.90;44.00;;;;;;5032359;28;20430;-76
2023/01/20 06:43:42;;;;;;;2.40;2.20;;;16.00;44.10;;;;;;5032140;28;20458;-77
2023/01/20 06:46:13;;;;;;;3.27;2.30;;;16.00;44.10;;;;;;5032368;28;20802;-76
2023/01/20 06:48:40;;;;;;;3.30;2.00;;;16.00;44.10;;;;;;5031900;28;20458;-76
2023/01/20 06:51:09;;;;;;;2.93;2.10;;;16.00;44.10;;;;;;5032033;28;20476;-75
2023/01/20 06:53:35;;;;;;;3.10;2.23;;;15.90;44.00;;;;;;5030650;28;20428;-75
2023/01/20 06:56:01;;;;;;;2.53;2.33;;;16.00;44.10;;;;;;5031906;28;20406;-75
2023/01/20 06:58:29;;;;;;;2.10;1.90;;;16.00;44.00;;;;;;5030474;28;20200;-75
2023/01/20 07:00:56;;;;;;;2.60;2.37;;;16.00;44.10;;;;;;5032333;28;20971;-75
2023/01/20 07:03:22;;;;;;;3.13;2.73;;;15.90;44.00;;;;;;5035222;28;20505;-75
2023/01/20 07:06:01;;;;;;;2.97;2.67;;;15.90;44.00;;;;;;5035567;28;20403;-75
2023/01/20 07:08:26;;;;;;;2.60;2.23;;;15.90;44.00;;;;;;5035441;28;20422;-75
2023/01/20 07:10:52;;;;;;;2.70;2.27;;;15.90;44.00;;;;;;5035549;28;20465;-75
2023/01/20 07:13:18;;;;;;;2.87;2.60;;;15.90;44.00;;;;;;5035420;28;20414;-75
2023/01/20 07:15:43;;;;;;;2.40;2.20;;;15.90;44.00;;;;;;5035947;28;20180;-75
2023/01/20 07:18:09;;;;;;;3.40;2.70;;;15.90;44.00;;;;;;5035608;28;20660;-75
2023/01/20 07:20:37;;;;;;;2.50;2.30;;;15.90;44.00;;;;;;5036253;28;20225;-75
2023/01/20 07:23:03;;;;;;;2.83;2.63;;;15.80;44.00;;;;;;5035759;28;20195;-74
2023/01/20 07:25:29;;;;;;;3.47;2.40;;;15.80;44.00;;;;;;5035231;28;20429;-75
2023/01/20 07:27:56;;;;;;;2.73;2.30;;;15.90;44.00;;;;;;5035174;28;20914;-75
2023/01/20 07:30:22;;;;;;;2.47;2.27;;;15.80;44.00;;;;;;5035302;28;20539;-75
2023/01/20 07:32:48;;;;;;;2.50;2.30;;;15.80;43.90;;;;;;5035096;28;20425;-76
2023/01/20 07:35:13;;;;;;;3.30;2.43;;;15.80;43.90;;;;;;5034891;28;20418;-77
2023/01/20 07:37:39;;;;;;;3.70;2.97;;;15.80;43.90;;;;;;5034758;28;20556;-76
2023/01/20 07:40:06;;;;;;;2.53;2.30;;;15.80;43.90;;;;;;5034857;28;20172;-76
2023/01/20 07:42:32;;;;;;;2.80;2.47;;;15.80;43.90;;;;;;5034725;28;20418;-76
2023/01/20 07:44:57;;;;;;;3.20;2.40;;;15.80;44.00;;;;;;5034897;28;20399;-76
2023/01/20 07:47:23;;;;;;;2.37;2.17;;;15.80;43.90;;;;;;5034509;28;20203;-76
2023/01/20 07:49:48;;;;;;;3.07;2.67;;;15.80;44.00;;;;;;5034612;28;20163;-77
2023/01/20 07:52:14;;;;;;;2.60;2.40;;;15.80;44.00;;;;;;5034788;28;20168;-76
2023/01/20 07:54:40;;;;;;;2.37;2.17;;;15.80;44.00;;;;;;5033127;28;20179;-75
2023/01/20 07:57:05;;;;;;;2.93;2.53;;;15.80;44.60;;;;;;5033135;28;20690;-76
2023/01/20 07:59:31;;;;;;;3.50;2.63;;;15.80;43.90;;;;;;5033406;28;20508;-76
2023/01/20 08:01:56;;;;;;;3.77;2.63;;;15.80;44.00;;;;;;5034904;28;20171;-76
2023/01/20 08:04:22;;;;;;;3.40;3.10;;;15.80;43.90;;;;;;5034396;28;20191;-76
2023/01/20 08:06:48;;;;;;;4.27;2.50;;;15.70;43.90;;;;;;5034744;28;20172;-78
2023/01/20 08:09:13;;;;;;;3.03;2.70;;;15.80;43.90;;;;;;5033385;28;20182;-77
2023/01/20 08:11:39;;;;;;;3.37;3.07;;;15.80;43.90;;;;;;5033358;28;20172;-77
2023/01/20 08:14:05;;;;;;;3.20;2.60;;;15.80;44.10;;;;;;5034713;28;20230;-77
2023/01/20 08:16:31;;;;;;;2.60;2.37;;;15.70;44.20;;;;;;5034547;28;20221;-77
2023/01/20 08:18:57;;;;;;;2.87;2.50;;;15.70;44.30;;;;;;5034538;28;20192;-77
2023/01/20 08:21:25;;;;;;;3.27;2.67;;;15.70;44.30;;;;;;5033111;28;20423;-77
2023/01/20 08:23:53;;;;;;;3.17;2.80;;;15.80;44.30;;;;;;5034209;28;20206;-76
2023/01/20 08:26:19;;;;;;;4.27;3.10;;;15.80;44.20;;;;;;5034247;28;20493;-77
2023/01/20 08:28:44;;;;;;;3.30;2.87;;;15.90;44.20;;;;;;5034229;28;20450;-77
2023/01/20 08:31:14;;;;;;;4.23;2.87;;;16.00;44.10;;;;;;5034298;28;20580;-77
2023/01/20 08:33:41;;;;;;;4.13;3.70;;;16.10;44.00;;;;;;5033913;28;20179;-77
2023/01/20 08:36:11;;;;;;;3.13;2.63;;;16.30;43.80;;;;;;5034238;28;20789;-77
2023/01/20 08:38:37;;;;;;;2.97;2.63;;;16.30;43.70;;;;;;5034167;28;20419;-75
2023/01/20 08:41:07;;;;;;;3.57;3.20;;;16.40;43.60;;;;;;5033961;28;20882;-75
2023/01/20 08:43:33;;;;;;;7.70;3.00;;;16.50;43.70;;;;;;5034291;28;20240;-77
2023/01/20 08:46:00;;;;;;;4.10;3.30;;;16.60;43.60;;;;;;5032910;28;20419;-78
2023/01/20 08:48:26;;;;;;;4.63;2.90;;;16.70;43.50;;;;;;5034280;28;20449;-78
2023/01/20 08:50:52;;;;;;;3.93;2.90;;;16.70;43.40;;;;;;5034076;28;20862;-78
2023/01/20 08:53:18;;;;;;;3.30;3.00;;;16.80;43.30;;;;;;5034355;28;20417;-77
2023/01/20 08:55:52;;;;;;;4.00;3.30;;;16.80;43.30;;;;;;5034177;28;20171;-77
2023/01/20 08:58:18;;;;;;;3.90;3.30;;;16.90;43.50;;;;;;5033878;28;20270;-76
2023/01/20 09:00:43;;;;;;;4.53;3.40;;;16.90;43.80;;;;;;5032616;28;20446;-78
2023/01/20 09:03:11;;;;;;;3.40;2.90;;;17.00;43.80;;;;;;5033510;28;20675;-74
2023/01/20 09:05:36;;;;;;;3.33;3.03;;;17.00;43.90;;;;;;5033596;28;20167;-74
2023/01/20 09:08:02;;;;;;;5.00;3.60;;;17.10;43.90;;;;;;5033496;28;20425;-75
2023/01/20 09:10:30;;;;;;;9.90;8.00;;;17.20;43.90;;;;;;5033645;28;20167;-76
2023/01/20 09:12:56;;;;;;;9.33;7.30;;;17.20;43.20;;;;;;5033626;28;20260;-77
2023/01/20 09:15:22;;;;;;;9.10;6.33;;;17.10;43.00;;;;;;5032963;28;20446;-78
2023/01/20 09:17:47;;;;;;;7.50;6.33;;;17.10;43.00;;;;;;5033237;28;20198;-80
2023/01/20 09:20:13;;;;;;;7.90;6.23;;;17.10;43.10;;;;;;5033313;28;20179;-80
2023/01/20 09:22:39;;;;;;;7.37;6.07;;;17.20;43.20;;;;;;5032859;28;20174;-80
2023/01/20 09:25:08;;;;;;;7.60;5.67;;;17.20;43.30;;;;;;5033053;28;20167;-81
2023/01/20 09:27:34;;;;;;;6.37;5.07;;;17.30;43.30;;;;;;5032914;28;20430;-81
2023/01/20 09:30:00;;;;;;;5.43;4.50;;;17.30;43.40;;;;;;5032028;28;20437;-79
2023/01/20 09:32:25;;;;;;;5.63;4.93;;;17.40;43.50;;;;;;5032910;28;20257;-82
2023/01/20 09:34:51;;;;;;;6.27;5.50;;;17.40;43.50;;;;;;5033499;28;20861;-81
2023/01/20 09:45:57;;;;;;;4.90;4.40;;;17.60;43.70;;;;;;5032886;28;20494;-76
2023/01/20 09:54:37;;;;;;;8.63;4.07;;;17.80;43.70;;;;;;5033006;28;20441;-76
2023/01/20 09:57:08;;;;;;;4.30;3.10;;;17.90;43.70;;;;;;5031696;28;20487;-77
2023/01/20 09:59:40;;;;;;;6.03;3.83;;;17.90;43.50;;;;;;5033100;28;20777;-76
2023/01/20 10:02:22;;;;;;;6.37;3.80;;;17.90;43.40;;;;;;5033259;28;20801;-75
2023/01/20 10:05:06;;;;;;;3.70;3.27;;;18.00;43.50;;;;;;5032879;28;20445;-77
2023/01/20 10:07:49;;;;;;;4.87;3.13;;;18.00;43.40;;;;;;5032632;28;20418;-73
2023/01/20 10:10:56;;;;;;;3.63;3.33;;;18.00;43.30;;;;;;5032884;28;20757;-77
2023/01/20 10:13:46;;;;;;;4.83;3.47;;;18.10;43.40;;;;;;5003963;28;20461;-75
2023/01/20 10:16:28;;;;;;;7.10;3.57;;;18.10;43.30;;;;;;5033530;28;20434;-76
2023/01/20 10:19:00;;;;;;;3.70;3.33;;;18.10;43.30;;;;;;5032791;28;20429;-74
2023/01/20 10:21:44;;;;;;;3.90;3.50;;;18.10;43.30;;;;;;5032682;28;20446;-73
2023/01/20 10:24:27;;;;;;;4.67;3.30;;;18.10;43.30;;;;;;5031288;28;20802;-77
2023/01/20 10:27:03;;;;;;;4.53;3.60;;;18.10;43.50;;;;;;5032565;28;20398;-74
2023/01/20 10:29:39;;;;;;;5.90;3.70;;;18.10;43.60;;;;;;5032314;28;20913;-75
2023/01/20 10:32:31;;;;;;;5.40;3.47;;;18.10;43.70;;;;;;5032620;28;20451;-75
2023/01/20 10:34:58;;;;;;;6.90;3.83;;;18.20;43.70;;;;;;5032627;28;20859;-75
2023/01/20 10:37:25;;;;;;;4.73;3.33;;;18.10;43.60;;;;;;5035003;28;20579;-75
2023/01/20 10:39:56;;;;;;;3.80;3.03;;;18.20;43.60;;;;;;5035022;28;20403;-77
2023/01/20 10:42:23;;;;;;;3.53;3.23;;;18.20;43.50;;;;;;5036394;28;20827;-77
2023/01/20 10:44:51;;;;;;;4.83;3.87;;;18.30;43.50;;;;;;5036379;28;20460;-74
2023/01/20 10:47:26;;;;;;;4.80;3.37;;;18.30;43.30;;;;;;5036114;28;20503;-74
2023/01/20 10:49:55;;;;;;;4.40;3.47;;;18.40;43.40;;;;;;5036093;28;20754;-74
2023/01/20 10:52:33;;;;;;;3.90;3.30;;;18.40;43.30;;;;;;5035225;28;20512;-78
2023/01/20 10:55:17;;;;;;;3.63;3.27;;;18.40;43.30;;;;;;5035997;28;20405;-77
2023/01/20 10:57:47;;;;;;;3.40;3.10;;;18.50;43.30;;;;;;5036045;28;20422;-77
2023/01/20 11:00:25;;;;;;;4.97;3.10;;;18.50;43.30;;;;;;5035840;28;20414;-77
2023/01/20 11:02:52;;;;;;;4.53;3.40;;;18.50;43.20;;;;;;5035780;28;20469;-78
2023/01/20 11:05:21;;;;;;;3.80;3.20;;;18.50;43.20;;;;;;5035908;28;20402;-74
2023/01/20 11:07:49;;;;;;;3.53;3.10;;;18.50;43.10;;;;;;5035710;28;20623;-74
2023/01/20 11:10:26;;;;;;;2.60;2.40;;;18.60;43.10;;;;;;5036070;28;20774;-74
2023/01/20 11:12:58;;;;;;;3.47;3.13;;;18.60;43.10;;;;;;5035754;28;20918;-74
2023/01/20 11:15:31;;;;;;;5.40;3.17;;;18.60;43.10;;;;;;5035865;28;20410;-74
2023/01/20 11:18:14;;;;;;;4.10;3.20;;;18.60;43.20;;;;;;5035834;28;20426;-74
2023/01/20 11:20:48;;;;;;;7.43;3.37;;;18.60;43.10;;;;;;5035772;28;20413;-74
2023/01/20 11:23:31;;;;;;;3.70;3.10;;;18.60;43.10;;;;;;5034302;28;20458;-75
2023/01/20 11:25:59;;;;;;;4.00;3.60;;;18.70;43.10;;;;;;5035694;28;20395;-74
2023/01/20 11:28:30;;;;;;;4.47;2.90;;;18.70;43.10;;;;;;5035475;28;20988;-75
2023/01/20 11:30:56;;;;;;;3.33;3.03;;;18.70;43.00;;;;;;5035637;28;20391;-75
2023/01/20 11:33:27;;;;;;;3.27;2.97;;;18.70;43.00;;;;;;5035479;28;20453;-74
2023/01/20 11:36:06;;;;;;;2.93;2.63;;;18.80;43.00;;;;;;5035475;28;20221;-74
2023/01/20 11:38:48;;;;;;;3.37;2.90;;;18.80;43.00;;;;;;5035527;28;20500;-74
2023/01/20 11:41:19;;;;;;;3.37;2.60;;;18.90;43.00;;;;;;5035604;28;20939;-77
2023/01/20 11:43:44;;;;;;;3.73;2.70;;;18.80;42.90;;;;;;5035350;28;20450;-74
2023/01/20 11:46:18;;;;;;;4.40;2.77;;;18.80;42.90;;;;;;5034892;28;20476;-78
2023/01/20 11:48:44;;;;;;;4.73;3.63;;;18.90;42.90;;;;;;5033574;28;20759;-75
2023/01/20 11:51:31;;;;;;;4.00;3.60;;;18.90;42.90;;;;;;5035024;28;20441;-75
2023/01/20 11:54:15;;;;;;;3.33;2.87;;;18.90;42.80;;;;;;5035272;28;20438;-74
2023/01/20 11:56:42;;;;;;;4.27;3.23;;;19.00;42.90;;;;;;5033294;28;20411;-74
2023/01/20 11:59:17;;;;;;;4.07;3.00;;;19.00;42.90;;;;;;5034896;28;20415;-74
2023/01/20 12:02:19;;;;;;;4.10;2.50;;;19.00;42.80;;;;;;5034912;28;20405;-77
2023/01/20 12:05:17;;;;;;;3.30;2.87;;;19.10;42.80;;;;;;5034748;28;20446;-77
2023/01/20 12:07:45;;;;;;;3.03;2.30;;;19.10;42.80;;;;;;5034607;28;20414;-77
2023/01/20 12:10:16;;;;;;;4.93;3.00;;;19.10;42.80;;;;;;5034769;28;20778;-74
2023/01/20 12:12:53;;;;;;;4.00;3.17;;;19.20;42.80;;;;;;5034847;28;20401;-77
2023/01/20 12:15:44;;;;;;;3.00;2.70;;;19.20;42.70;;;;;;5034523;28;20386;-77
2023/01/20 12:18:22;;;;;;;2.83;2.50;;;19.20;42.70;;;;;;5026178;28;20921;-77
2023/01/20 12:21:16;;;;;;;2.90;2.60;;;19.20;42.70;;;;;;5035210;28;20386;-77
2023/01/20 12:23:48;;;;;;;2.63;2.20;;;19.30;42.70;;;;;;5033705;28;20465;-80
2023/01/20 12:26:17;;;;;;;3.17;2.80;;;19.30;42.70;;;;;;5034757;28;20760;-74
2023/01/20 12:29:03;;;;;;;4.13;3.00;;;19.20;42.70;;;;;;5033769;28;20430;-74
2023/01/20 12:31:30;;;;;;;4.87;3.00;;;19.20;42.80;;;;;;5034183;28;20391;-74
2023/01/20 12:34:03;;;;;;;3.53;3.23;;;19.10;42.80;;;;;;5033269;28;20437;-77
2023/01/20 12:36:49;;;;;;;4.60;2.87;;;19.10;43.00;;;;;;5034267;28;20421;-77
2023/01/20 12:39:24;;;;;;;4.47;3.10;;;19.10;43.00;;;;;;5032797;28;20406;-74
2023/01/20 12:42:22;;;;;;;3.10;2.80;;;19.00;42.90;;;;;;5033961;28;20406;-74
2023/01/20 12:44:55;;;;;;;3.43;2.50;;;19.00;42.90;;;;;;5034150;28;20473;-74
2023/01/20 12:47:36;;;;;;;3.77;3.13;;;19.00;43.00;;;;;;5034073;28;20465;-74
2023/01/20 12:50:23;;;;;;;5.27;2.80;;;19.00;43.00;;;;;;5032770;28;20413;-74
2023/01/20 12:52:57;;;;;;;3.83;2.93;;;19.00;43.00;;;;;;5034003;28;20399;-77
2023/01/20 12:55:51;;;;;;;4.20;3.30;;;18.90;43.00;;;;;;5033955;28;20525;-77
2023/01/20 12:58:25;;;;;;;5.20;3.27;;;18.90;43.00;;;;;;5033056;28;20447;-77
2023/01/20 13:01:15;;;;;;;2.83;2.53;;;18.80;43.00;;;;;;5032670;28;20409;-74
2023/01/20 13:03:54;;;;;;;4.00;3.00;;;18.80;43.10;;;;;;5033831;28;20449;-73
2023/01/20 13:06:44;;;;;;;3.37;2.77;;;18.80;43.20;;;;;;5033810;28;20426;-73
2023/01/20 13:09:13;;;;;;;4.37;3.00;;;18.80;43.20;;;;;;5032260;28;20403;-77
2023/01/20 13:12:00;;;;;;;3.30;3.00;;;18.70;43.20;;;;;;5033566;28;20402;-77
2023/01/20 13:14:52;;;;;;;4.77;3.20;;;18.70;43.20;;;;;;5033679;28;20391;-76
2023/01/20 13:17:32;;;;;;;5.30;3.13;;;18.70;43.30;;;;;;5032043;28;20950;-77
2023/01/20 13:20:00;;;;;;;4.80;3.27;;;18.60;43.30;;;;;;5033588;28;20398;-76